sensor_id;sensor_type;location;lat;lon;timestamp;P1;durP1;ratioP1;P2;durP2;ratioP2
13571;SDS011;6857;53.484;10.216;2022-08-16T00:00:35;17.13;;;15.33;;
13571;SDS011;6857;53.484;10.216;2022-08-16T00:03:04;16.10;;;14.50;;
13571;SDS011;6857;53.484;10.216;2022-08-16T00:05:30;15.73;;;14.23;;
13571;SDS011;6857;53.484;10.216;2022-08-16T00:07:56;18.50;;;15.10;;
13571;SDS011;6857;53.484;10.216;2022-08-16T00:10:23;15.50;;;13.90;;
13571;SDS011;6857;53.484;10.216;2022-08-16T00:12:51;15.37;;;13.87;;
13571;SDS011;6857;53.484;10.216;2022-08-16T00:15:22;14.87;;;13.57;;
13571;SDS011;6857;53.484;10.216;2022-08-16T00:17:51;15.77;;;14.13;;
13571;SDS011;6857;53.484;10.216;2022-08-16T00:20:17;15.37;;;13.87;;
13571;SDS011;6857;53.484;10.216;2022-08-16T00:22:42;14.97;;;13.50;;
13571;SDS011;6857;53.484;10.216;2022-08-16T00:25:11;15.83;;;14.23;;
13571;SDS011;6857;53.484;10.216;2022-08-16T00:27:39;14.53;;;13.03;;
13571;SDS011;6857;53.484;10.216;2022-08-16T00:30:06;16.00;;;14.20;;
13571;SDS011;6857;53.484;10.216;2022-08-16T00:32:33;16.23;;;14.40;;
13571;SDS011;6857;53.484;10.216;2022-08-16T00:34:59;16.20;;;14.60;;
13571;SDS011;6857;53.484;10.216;2022-08-16T00:37:25;15.00;;;13.50;;
13571;SDS011;6857;53.484;10.216;2022-08-16T00:39:52;19.20;;;17.33;;
13571;SDS011;6857;53.484;10.216;2022-08-16T00:42:18;16.40;;;14.80;;
13571;SDS011;6857;53.484;10.216;2022-08-16T00:44:45;16.93;;;15.23;;
13571;SDS011;6857;53.484;10.216;2022-08-16T00:47:19;16.33;;;14.73;;
13571;SDS011;6857;53.484;10.216;2022-08-16T00:49:47;17.17;;;15.43;;
13571;SDS011;6857;53.484;10.216;2022-08-16T00:52:13;17.00;;;15.20;;
13571;SDS011;6857;53.484;10.216;2022-08-16T00:54:38;16.67;;;15.07;;
13571;SDS011;6857;53.484;10.216;2022-08-16T00:57:04;17.37;;;15.23;;
13571;SDS011;6857;53.484;10.216;2022-08-16T00:59:32;17.10;;;14.80;;
13571;SDS011;6857;53.484;10.216;2022-08-16T01:02:00;16.63;;;15.00;;
13571;SDS011;6857;53.484;10.216;2022-08-16T01:04:27;15.97;;;14.57;;
13571;SDS011;6857;53.484;10.216;2022-08-16T01:06:53;15.03;;;13.73;;
13571;SDS011;6857;53.484;10.216;2022-08-16T01:09:20;16.30;;;14.67;;
13571;SDS011;6857;53.484;10.216;2022-08-16T01:11:46;15.63;;;14.10;;
13571;SDS011;6857;53.484;10.216;2022-08-16T01:14:17;16.53;;;14.77;;
13571;SDS011;6857;53.484;10.216;2022-08-16T01:16:47;17.07;;;15.30;;
13571;SDS011;6857;53.484;10.216;2022-08-16T01:21:58;16.50;;;14.90;;
13571;SDS011;6857;53.484;10.216;2022-08-16T01:24:27;15.90;;;14.30;;
13571;SDS011;6857;53.484;10.216;2022-08-16T01:27:02;16.63;;;15.07;;
13571;SDS011;6857;53.484;10.216;2022-08-16T01:29:35;17.20;;;15.50;;
13571;SDS011;6857;53.484;10.216;2022-08-16T01:32:05;17.50;;;15.70;;
13571;SDS011;6857;53.484;10.216;2022-08-16T01:34:30;16.57;;;14.87;;
13571;SDS011;6857;53.484;10.216;2022-08-16T01:36:57;15.70;;;14.20;;
13571;SDS011;6857;53.484;10.216;2022-08-16T01:39:25;15.70;;;14.30;;
13571;SDS011;6857;53.484;10.216;2022-08-16T01:41:50;17.03;;;15.23;;
13571;SDS011;6857;53.484;10.216;2022-08-16T01:44:16;17.17;;;15.40;;
13571;SDS011;6857;53.484;10.216;2022-08-16T01:46:42;16.97;;;15.37;;
13571;SDS011;6857;53.484;10.216;2022-08-16T01:49:20;17.07;;;15.47;;
13571;SDS011;6857;53.484;10.216;2022-08-16T01:51:50;16.73;;;15.13;;
13571;SDS011;6857;53.484;10.216;2022-08-16T01:54:19;17.63;;;15.87;;
13571;SDS011;6857;53.484;10.216;2022-08-16T01:56:45;16.67;;;14.90;;
13571;SDS011;6857;53.484;10.216;2022-08-16T01:59:11;18.07;;;16.27;;
13571;SDS011;6857;53.484;10.216;2022-08-16T02:01:39;16.77;;;15.10;;
13571;SDS011;6857;53.484;10.216;2022-08-16T02:04:05;18.83;;;16.97;;
13571;SDS011;6857;53.484;10.216;2022-08-16T02:06:31;17.33;;;15.63;;
13571;SDS011;6857;53.484;10.216;2022-08-16T02:08:56;17.03;;;15.43;;
13571;SDS011;6857;53.484;10.216;2022-08-16T02:11:23;18.10;;;16.50;;
13571;SDS011;6857;53.484;10.216;2022-08-16T02:13:49;17.97;;;15.87;;
13571;SDS011;6857;53.484;10.216;2022-08-16T02:16:15;18.77;;;16.90;;
13571;SDS011;6857;53.484;10.216;2022-08-16T02:18:42;19.47;;;17.37;;
13571;SDS011;6857;53.484;10.216;2022-08-16T02:21:07;19.00;;;17.10;;
13571;SDS011;6857;53.484;10.216;2022-08-16T02:23:35;18.13;;;16.43;;
13571;SDS011;6857;53.484;10.216;2022-08-16T02:26:02;19.00;;;17.03;;
13571;SDS011;6857;53.484;10.216;2022-08-16T02:28:28;18.47;;;16.57;;
13571;SDS011;6857;53.484;10.216;2022-08-16T02:30:54;19.60;;;17.70;;
13571;SDS011;6857;53.484;10.216;2022-08-16T02:33:22;19.73;;;17.90;;
13571;SDS011;6857;53.484;10.216;2022-08-16T02:35:50;19.87;;;17.77;;
13571;SDS011;6857;53.484;10.216;2022-08-16T02:38:15;18.23;;;16.53;;
13571;SDS011;6857;53.484;10.216;2022-08-16T02:40:41;20.70;;;18.47;;
13571;SDS011;6857;53.484;10.216;2022-08-16T02:43:07;19.37;;;17.17;;
13571;SDS011;6857;53.484;10.216;2022-08-16T02:45:32;19.63;;;17.53;;
13571;SDS011;6857;53.484;10.216;2022-08-16T02:47:58;20.03;;;18.07;;
13571;SDS011;6857;53.484;10.216;2022-08-16T02:50:24;18.57;;;16.77;;
13571;SDS011;6857;53.484;10.216;2022-08-16T02:52:50;20.60;;;18.60;;
13571;SDS011;6857;53.484;10.216;2022-08-16T02:55:16;19.80;;;17.80;;
13571;SDS011;6857;53.484;10.216;2022-08-16T02:57:42;20.90;;;18.73;;
13571;SDS011;6857;53.484;10.216;2022-08-16T03:00:08;21.63;;;19.33;;
13571;SDS011;6857;53.484;10.216;2022-08-16T03:02:36;22.03;;;19.87;;
13571;SDS011;6857;53.484;10.216;2022-08-16T03:05:04;23.33;;;20.93;;
13571;SDS011;6857;53.484;10.216;2022-08-16T03:07:30;24.47;;;20.30;;
13571;SDS011;6857;53.484;10.216;2022-08-16T03:09:56;23.10;;;20.77;;
13571;SDS011;6857;53.484;10.216;2022-08-16T03:12:22;22.63;;;20.33;;
13571;SDS011;6857;53.484;10.216;2022-08-16T03:14:47;23.67;;;21.17;;
13571;SDS011;6857;53.484;10.216;2022-08-16T03:17:13;23.47;;;20.97;;
13571;SDS011;6857;53.484;10.216;2022-08-16T03:19:39;24.07;;;21.30;;
13571;SDS011;6857;53.484;10.216;2022-08-16T03:22:04;22.87;;;20.47;;
13571;SDS011;6857;53.484;10.216;2022-08-16T03:24:30;26.13;;;21.50;;
13571;SDS011;6857;53.484;10.216;2022-08-16T03:26:57;25.00;;;22.17;;
13571;SDS011;6857;53.484;10.216;2022-08-16T03:29:25;24.53;;;21.53;;
13571;SDS011;6857;53.484;10.216;2022-08-16T03:31:52;25.23;;;22.43;;
13571;SDS011;6857;53.484;10.216;2022-08-16T03:34:18;24.67;;;21.97;;
13571;SDS011;6857;53.484;10.216;2022-08-16T03:36:44;25.77;;;23.00;;
13571;SDS011;6857;53.484;10.216;2022-08-16T03:39:09;25.97;;;22.13;;
13571;SDS011;6857;53.484;10.216;2022-08-16T03:41:35;24.83;;;22.33;;
13571;SDS011;6857;53.484;10.216;2022-08-16T03:44:01;25.77;;;23.13;;
13571;SDS011;6857;53.484;10.216;2022-08-16T03:46:27;25.97;;;22.93;;
13571;SDS011;6857;53.484;10.216;2022-08-16T03:48:53;25.30;;;22.67;;
13571;SDS011;6857;53.484;10.216;2022-08-16T03:51:19;25.70;;;23.07;;
13571;SDS011;6857;53.484;10.216;2022-08-16T03:53:45;25.33;;;22.83;;
13571;SDS011;6857;53.484;10.216;2022-08-16T03:56:11;25.67;;;22.20;;
13571;SDS011;6857;53.484;10.216;2022-08-16T03:58:36;24.43;;;22.23;;
13571;SDS011;6857;53.484;10.216;2022-08-16T04:01:03;26.53;;;23.73;;
13571;SDS011;6857;53.484;10.216;2022-08-16T04:03:29;26.93;;;24.17;;
13571;SDS011;6857;53.484;10.216;2022-08-16T04:05:55;25.20;;;22.63;;
13571;SDS011;6857;53.484;10.216;2022-08-16T04:08:21;27.90;;;25.20;;
13571;SDS011;6857;53.484;10.216;2022-08-16T04:10:48;27.03;;;24.23;;
13571;SDS011;6857;53.484;10.216;2022-08-16T04:13:14;25.70;;;23.10;;
13571;SDS011;6857;53.484;10.216;2022-08-16T04:15:40;25.23;;;22.53;;
13571;SDS011;6857;53.484;10.216;2022-08-16T04:18:06;25.53;;;22.47;;
13571;SDS011;6857;53.484;10.216;2022-08-16T04:20:32;25.30;;;22.80;;
13571;SDS011;6857;53.484;10.216;2022-08-16T04:22:58;24.50;;;21.93;;
13571;SDS011;6857;53.484;10.216;2022-08-16T04:25:24;25.17;;;22.47;;
13571;SDS011;6857;53.484;10.216;2022-08-16T04:27:50;27.07;;;24.33;;
13571;SDS011;6857;53.484;10.216;2022-08-16T04:30:16;27.60;;;23.10;;
13571;SDS011;6857;53.484;10.216;2022-08-16T04:32:43;24.67;;;22.17;;
13571;SDS011;6857;53.484;10.216;2022-08-16T04:35:11;26.47;;;23.83;;
13571;SDS011;6857;53.484;10.216;2022-08-16T04:37:40;25.27;;;22.67;;
13571;SDS011;6857;53.484;10.216;2022-08-16T04:40:07;25.37;;;22.83;;
13571;SDS011;6857;53.484;10.216;2022-08-16T04:42:34;26.27;;;23.60;;
13571;SDS011;6857;53.484;10.216;2022-08-16T04:45:03;25.30;;;22.70;;
13571;SDS011;6857;53.484;10.216;2022-08-16T04:47:30;25.63;;;22.90;;
13571;SDS011;6857;53.484;10.216;2022-08-16T04:49:56;25.17;;;22.53;;
13571;SDS011;6857;53.484;10.216;2022-08-16T04:52:22;26.10;;;22.83;;
13571;SDS011;6857;53.484;10.216;2022-08-16T04:54:48;25.40;;;22.60;;
13571;SDS011;6857;53.484;10.216;2022-08-16T04:57:13;26.60;;;23.83;;
13571;SDS011;6857;53.484;10.216;2022-08-16T04:59:39;26.43;;;23.37;;
13571;SDS011;6857;53.484;10.216;2022-08-16T05:02:05;26.63;;;23.80;;
13571;SDS011;6857;53.484;10.216;2022-08-16T05:04:31;26.83;;;24.03;;
13571;SDS011;6857;53.484;10.216;2022-08-16T05:06:56;26.20;;;23.67;;
13571;SDS011;6857;53.484;10.216;2022-08-16T05:09:22;29.27;;;25.57;;
13571;SDS011;6857;53.484;10.216;2022-08-16T05:11:48;26.43;;;23.70;;
13571;SDS011;6857;53.484;10.216;2022-08-16T05:14:13;27.57;;;24.90;;
13571;SDS011;6857;53.484;10.216;2022-08-16T05:16:39;27.60;;;24.53;;
13571;SDS011;6857;53.484;10.216;2022-08-16T05:19:05;27.90;;;25.00;;
13571;SDS011;6857;53.484;10.216;2022-08-16T05:21:32;27.93;;;24.93;;
13571;SDS011;6857;53.484;10.216;2022-08-16T05:23:59;28.13;;;25.43;;
13571;SDS011;6857;53.484;10.216;2022-08-16T05:26:29;29.10;;;25.97;;
13571;SDS011;6857;53.484;10.216;2022-08-16T05:28:55;27.87;;;24.93;;
13571;SDS011;6857;53.484;10.216;2022-08-16T05:31:23;27.33;;;24.57;;
13571;SDS011;6857;53.484;10.216;2022-08-16T05:33:50;27.00;;;24.33;;
13571;SDS011;6857;53.484;10.216;2022-08-16T05:36:15;27.80;;;24.93;;
13571;SDS011;6857;53.484;10.216;2022-08-16T05:38:41;28.70;;;25.80;;
13571;SDS011;6857;53.484;10.216;2022-08-16T05:41:06;27.87;;;24.70;;
13571;SDS011;6857;53.484;10.216;2022-08-16T05:43:32;30.17;;;27.10;;
13571;SDS011;6857;53.484;10.216;2022-08-16T05:45:58;27.50;;;24.63;;
13571;SDS011;6857;53.484;10.216;2022-08-16T05:48:24;29.00;;;26.10;;
13571;SDS011;6857;53.484;10.216;2022-08-16T05:50:50;29.13;;;26.03;;
13571;SDS011;6857;53.484;10.216;2022-08-16T05:53:16;27.87;;;25.00;;
13571;SDS011;6857;53.484;10.216;2022-08-16T05:55:42;29.37;;;26.37;;
13571;SDS011;6857;53.484;10.216;2022-08-16T05:58:08;27.27;;;24.53;;
13571;SDS011;6857;53.484;10.216;2022-08-16T06:00:33;29.67;;;26.33;;
13571;SDS011;6857;53.484;10.216;2022-08-16T06:02:59;29.63;;;26.73;;
13571;SDS011;6857;53.484;10.216;2022-08-16T06:05:25;28.30;;;25.53;;
13571;SDS011;6857;53.484;10.216;2022-08-16T06:07:50;31.13;;;26.53;;
13571;SDS011;6857;53.484;10.216;2022-08-16T06:10:17;29.60;;;26.47;;
13571;SDS011;6857;53.484;10.216;2022-08-16T06:12:43;29.70;;;26.50;;
13571;SDS011;6857;53.484;10.216;2022-08-16T06:15:14;29.97;;;26.97;;
13571;SDS011;6857;53.484;10.216;2022-08-16T06:17:42;28.10;;;25.40;;
13571;SDS011;6857;53.484;10.216;2022-08-16T06:20:09;27.40;;;24.57;;
13571;SDS011;6857;53.484;10.216;2022-08-16T06:22:38;29.50;;;26.37;;
13571;SDS011;6857;53.484;10.216;2022-08-16T06:25:04;26.83;;;23.93;;
13571;SDS011;6857;53.484;10.216;2022-08-16T06:27:30;26.00;;;23.30;;
13571;SDS011;6857;53.484;10.216;2022-08-16T06:29:55;25.40;;;22.77;;
13571;SDS011;6857;53.484;10.216;2022-08-16T06:32:21;25.00;;;22.47;;
13571;SDS011;6857;53.484;10.216;2022-08-16T06:34:46;24.97;;;22.47;;
13571;SDS011;6857;53.484;10.216;2022-08-16T06:37:12;24.90;;;22.33;;
13571;SDS011;6857;53.484;10.216;2022-08-16T06:39:38;24.40;;;21.90;;
13571;SDS011;6857;53.484;10.216;2022-08-16T06:42:03;24.47;;;21.93;;
13571;SDS011;6857;53.484;10.216;2022-08-16T06:44:29;24.00;;;21.63;;
13571;SDS011;6857;53.484;10.216;2022-08-16T06:46:55;22.90;;;20.43;;
13571;SDS011;6857;53.484;10.216;2022-08-16T06:49:21;22.13;;;19.80;;
13571;SDS011;6857;53.484;10.216;2022-08-16T06:51:47;21.40;;;19.27;;
13571;SDS011;6857;53.484;10.216;2022-08-16T06:54:13;19.07;;;17.27;;
13571;SDS011;6857;53.484;10.216;2022-08-16T06:56:38;20.60;;;18.43;;
13571;SDS011;6857;53.484;10.216;2022-08-16T06:59:04;20.13;;;18.03;;
13571;SDS011;6857;53.484;10.216;2022-08-16T07:01:30;19.10;;;17.10;;
13571;SDS011;6857;53.484;10.216;2022-08-16T07:03:55;21.50;;;19.30;;
13571;SDS011;6857;53.484;10.216;2022-08-16T07:06:21;20.37;;;18.33;;
13571;SDS011;6857;53.484;10.216;2022-08-16T07:08:48;18.10;;;16.20;;
13571;SDS011;6857;53.484;10.216;2022-08-16T07:11:14;19.30;;;17.40;;
13571;SDS011;6857;53.484;10.216;2022-08-16T07:13:40;17.93;;;16.00;;
13571;SDS011;6857;53.484;10.216;2022-08-16T07:16:07;19.00;;;16.70;;
13571;SDS011;6857;53.484;10.216;2022-08-16T07:18:38;17.33;;;14.93;;
13571;SDS011;6857;53.484;10.216;2022-08-16T07:21:08;16.93;;;14.50;;
13571;SDS011;6857;53.484;10.216;2022-08-16T07:23:35;16.13;;;14.53;;
13571;SDS011;6857;53.484;10.216;2022-08-16T07:26:02;15.93;;;14.20;;
13571;SDS011;6857;53.484;10.216;2022-08-16T07:28:31;15.07;;;13.47;;
13571;SDS011;6857;53.484;10.216;2022-08-16T07:30:57;16.27;;;14.67;;
13571;SDS011;6857;53.484;10.216;2022-08-16T07:33:23;16.00;;;14.50;;
13571;SDS011;6857;53.484;10.216;2022-08-16T07:35:49;15.13;;;13.40;;
13571;SDS011;6857;53.484;10.216;2022-08-16T07:38:15;15.87;;;13.93;;
13571;SDS011;6857;53.484;10.216;2022-08-16T07:40:40;14.80;;;13.43;;
13571;SDS011;6857;53.484;10.216;2022-08-16T07:43:06;14.47;;;12.97;;
13571;SDS011;6857;53.484;10.216;2022-08-16T07:45:31;16.13;;;14.53;;
13571;SDS011;6857;53.484;10.216;2022-08-16T07:47:57;15.20;;;13.70;;
13571;SDS011;6857;53.484;10.216;2022-08-16T07:50:23;14.63;;;13.13;;
13571;SDS011;6857;53.484;10.216;2022-08-16T07:52:49;16.07;;;14.37;;
13571;SDS011;6857;53.484;10.216;2022-08-16T07:55:14;16.07;;;14.40;;
13571;SDS011;6857;53.484;10.216;2022-08-16T07:57:41;15.43;;;13.97;;
13571;SDS011;6857;53.484;10.216;2022-08-16T08:00:07;16.00;;;14.37;;
13571;SDS011;6857;53.484;10.216;2022-08-16T08:02:33;14.47;;;12.97;;
13571;SDS011;6857;53.484;10.216;2022-08-16T08:05:00;14.67;;;13.17;;
13571;SDS011;6857;53.484;10.216;2022-08-16T08:07:25;15.43;;;13.93;;
13571;SDS011;6857;53.484;10.216;2022-08-16T08:09:51;14.80;;;13.30;;
13571;SDS011;6857;53.484;10.216;2022-08-16T08:12:17;13.67;;;12.33;;
13571;SDS011;6857;53.484;10.216;2022-08-16T08:14:45;13.73;;;12.27;;
13571;SDS011;6857;53.484;10.216;2022-08-16T08:17:11;15.93;;;13.00;;
13571;SDS011;6857;53.484;10.216;2022-08-16T08:19:37;14.70;;;12.90;;
13571;SDS011;6857;53.484;10.216;2022-08-16T08:22:03;15.40;;;12.27;;
13571;SDS011;6857;53.484;10.216;2022-08-16T08:24:29;13.93;;;12.63;;
13571;SDS011;6857;53.484;10.216;2022-08-16T08:26:57;14.55;;;13.13;;
13571;SDS011;6857;53.484;10.216;2022-08-16T08:29:23;17.15;;;13.50;;
13571;SDS011;6857;53.484;10.216;2022-08-16T08:31:49;14.23;;;12.70;;
13571;SDS011;6857;53.484;10.216;2022-08-16T08:34:15;13.35;;;11.85;;
13571;SDS011;6857;53.484;10.216;2022-08-16T08:36:42;15.10;;;13.50;;
13571;SDS011;6857;53.484;10.216;2022-08-16T08:39:07;14.93;;;12.85;;
13571;SDS011;6857;53.484;10.216;2022-08-16T08:41:33;18.67;;;12.68;;
13571;SDS011;6857;53.484;10.216;2022-08-16T08:43:58;14.57;;;12.25;;
13571;SDS011;6857;53.484;10.216;2022-08-16T08:46:24;14.23;;;12.73;;
13571;SDS011;6857;53.484;10.216;2022-08-16T08:48:52;13.10;;;11.73;;
13571;SDS011;6857;53.484;10.216;2022-08-16T08:51:18;13.23;;;11.88;;
13571;SDS011;6857;53.484;10.216;2022-08-16T08:53:44;13.65;;;12.45;;
13571;SDS011;6857;53.484;10.216;2022-08-16T08:56:11;14.35;;;12.32;;
13571;SDS011;6857;53.484;10.216;2022-08-16T08:58:37;14.70;;;13.20;;
13571;SDS011;6857;53.484;10.216;2022-08-16T09:01:04;12.82;;;11.50;;
13571;SDS011;6857;53.484;10.216;2022-08-16T09:03:31;12.70;;;10.80;;
13571;SDS011;6857;53.484;10.216;2022-08-16T09:06:01;12.40;;;11.20;;
13571;SDS011;6857;53.484;10.216;2022-08-16T09:08:27;9.98;;;8.98;;
13571;SDS011;6857;53.484;10.216;2022-08-16T09:10:55;11.57;;;10.40;;
13571;SDS011;6857;53.484;10.216;2022-08-16T09:13:21;10.68;;;9.57;;
13571;SDS011;6857;53.484;10.216;2022-08-16T09:15:48;12.10;;;10.27;;
13571;SDS011;6857;53.484;10.216;2022-08-16T09:18:16;11.13;;;10.07;;
13571;SDS011;6857;53.484;10.216;2022-08-16T09:20:42;10.70;;;9.70;;
13571;SDS011;6857;53.484;10.216;2022-08-16T09:23:09;11.32;;;10.25;;
13571;SDS011;6857;53.484;10.216;2022-08-16T09:25:35;11.02;;;10.02;;
13571;SDS011;6857;53.484;10.216;2022-08-16T09:28:01;10.60;;;9.18;;
13571;SDS011;6857;53.484;10.216;2022-08-16T09:30:27;10.60;;;8.57;;
13571;SDS011;6857;53.484;10.216;2022-08-16T09:32:53;9.38;;;8.48;;
13571;SDS011;6857;53.484;10.216;2022-08-16T09:35:20;9.35;;;8.45;;
13571;SDS011;6857;53.484;10.216;2022-08-16T09:37:46;9.63;;;8.70;;
13571;SDS011;6857;53.484;10.216;2022-08-16T09:40:12;9.07;;;8.18;;
13571;SDS011;6857;53.484;10.216;2022-08-16T09:42:38;12.48;;;11.10;;
13571;SDS011;6857;53.484;10.216;2022-08-16T09:45:05;10.82;;;9.45;;
13571;SDS011;6857;53.484;10.216;2022-08-16T09:47:32;9.35;;;7.75;;
13571;SDS011;6857;53.484;10.216;2022-08-16T09:50:03;8.80;;;8.10;;
13571;SDS011;6857;53.484;10.216;2022-08-16T09:52:29;8.65;;;7.78;;
13571;SDS011;6857;53.484;10.216;2022-08-16T09:54:54;9.70;;;8.70;;
13571;SDS011;6857;53.484;10.216;2022-08-16T09:57:20;10.85;;;9.85;;
13571;SDS011;6857;53.484;10.216;2022-08-16T09:59:45;11.10;;;10.00;;
13571;SDS011;6857;53.484;10.216;2022-08-16T10:02:11;11.45;;;9.88;;
13571;SDS011;6857;53.484;10.216;2022-08-16T10:04:36;9.68;;;8.88;;
13571;SDS011;6857;53.484;10.216;2022-08-16T10:07:02;10.00;;;9.07;;
13571;SDS011;6857;53.484;10.216;2022-08-16T10:09:28;10.07;;;8.98;;
13571;SDS011;6857;53.484;10.216;2022-08-16T10:11:54;11.10;;;9.77;;
13571;SDS011;6857;53.484;10.216;2022-08-16T10:14:38;9.20;;;8.40;;
13571;SDS011;6857;53.484;10.216;2022-08-16T10:17:04;8.52;;;7.57;;
13571;SDS011;6857;53.484;10.216;2022-08-16T10:19:30;8.40;;;7.43;;
13571;SDS011;6857;53.484;10.216;2022-08-16T10:21:57;9.10;;;8.18;;
13571;SDS011;6857;53.484;10.216;2022-08-16T10:24:23;10.82;;;8.77;;
13571;SDS011;6857;53.484;10.216;2022-08-16T10:26:49;8.38;;;7.20;;
13571;SDS011;6857;53.484;10.216;2022-08-16T10:29:16;9.18;;;7.50;;
13571;SDS011;6857;53.484;10.216;2022-08-16T10:31:43;8.02;;;7.20;;
13571;SDS011;6857;53.484;10.216;2022-08-16T10:34:08;10.20;;;6.88;;
13571;SDS011;6857;53.484;10.216;2022-08-16T10:36:34;8.63;;;7.18;;
13571;SDS011;6857;53.484;10.216;2022-08-16T10:39:00;7.78;;;7.07;;
13571;SDS011;6857;53.484;10.216;2022-08-16T10:41:25;7.72;;;6.60;;
13571;SDS011;6857;53.484;10.216;2022-08-16T10:43:51;10.55;;;6.55;;
13571;SDS011;6857;53.484;10.216;2022-08-16T10:46:17;7.57;;;6.88;;
13571;SDS011;6857;53.484;10.216;2022-08-16T10:48:43;9.43;;;6.63;;
13571;SDS011;6857;53.484;10.216;2022-08-16T10:51:10;6.95;;;6.25;;
13571;SDS011;6857;53.484;10.216;2022-08-16T10:53:36;7.32;;;5.97;;
13571;SDS011;6857;53.484;10.216;2022-08-16T10:56:04;7.47;;;5.82;;
13571;SDS011;6857;53.484;10.216;2022-08-16T10:58:32;6.88;;;5.95;;
13571;SDS011;6857;53.484;10.216;2022-08-16T11:00:58;9.55;;;5.90;;
13571;SDS011;6857;53.484;10.216;2022-08-16T11:03:24;6.95;;;5.90;;
13571;SDS011;6857;53.484;10.216;2022-08-16T11:05:52;6.10;;;5.50;;
13571;SDS011;6857;53.484;10.216;2022-08-16T11:08:18;5.78;;;5.20;;
13571;SDS011;6857;53.484;10.216;2022-08-16T11:10:44;6.03;;;5.10;;
13571;SDS011;6857;53.484;10.216;2022-08-16T11:13:13;6.53;;;5.88;;
13571;SDS011;6857;53.484;10.216;2022-08-16T11:15:41;6.88;;;5.95;;
13571;SDS011;6857;53.484;10.216;2022-08-16T11:18:08;6.93;;;5.60;;
13571;SDS011;6857;53.484;10.216;2022-08-16T11:20:35;6.18;;;5.60;;
13571;SDS011;6857;53.484;10.216;2022-08-16T11:23:01;6.45;;;5.32;;
13571;SDS011;6857;53.484;10.216;2022-08-16T11:25:27;10.45;;;6.47;;
13571;SDS011;6857;53.484;10.216;2022-08-16T11:27:56;7.97;;;6.65;;
13571;SDS011;6857;53.484;10.216;2022-08-16T11:30:23;7.07;;;6.43;;
13571;SDS011;6857;53.484;10.216;2022-08-16T11:32:49;8.32;;;6.45;;
13571;SDS011;6857;53.484;10.216;2022-08-16T11:35:16;8.18;;;6.93;;
13571;SDS011;6857;53.484;10.216;2022-08-16T11:37:45;7.07;;;6.38;;
13571;SDS011;6857;53.484;10.216;2022-08-16T11:40:15;9.93;;;7.82;;
13571;SDS011;6857;53.484;10.216;2022-08-16T11:42:41;9.63;;;6.97;;
13571;SDS011;6857;53.484;10.216;2022-08-16T11:45:07;7.63;;;6.43;;
13571;SDS011;6857;53.484;10.216;2022-08-16T11:47:32;7.60;;;5.82;;
13571;SDS011;6857;53.484;10.216;2022-08-16T11:49:58;8.38;;;6.32;;
13571;SDS011;6857;53.484;10.216;2022-08-16T11:52:24;7.10;;;6.40;;
13571;SDS011;6857;53.484;10.216;2022-08-16T11:54:50;7.22;;;5.78;;
13571;SDS011;6857;53.484;10.216;2022-08-16T11:57:16;6.80;;;6.18;;
13571;SDS011;6857;53.484;10.216;2022-08-16T11:59:42;6.57;;;5.88;;
13571;SDS011;6857;53.484;10.216;2022-08-16T12:02:08;8.48;;;6.50;;
13571;SDS011;6857;53.484;10.216;2022-08-16T12:04:34;6.68;;;6.00;;
13571;SDS011;6857;53.484;10.216;2022-08-16T12:07:00;9.50;;;5.88;;
13571;SDS011;6857;53.484;10.216;2022-08-16T12:09:28;5.95;;;5.35;;
13571;SDS011;6857;53.484;10.216;2022-08-16T12:11:54;5.57;;;5.10;;
13571;SDS011;6857;53.484;10.216;2022-08-16T12:14:20;6.47;;;5.80;;
13571;SDS011;6857;53.484;10.216;2022-08-16T12:16:47;6.28;;;5.78;;
13571;SDS011;6857;53.484;10.216;2022-08-16T12:19:13;6.32;;;5.70;;
13571;SDS011;6857;53.484;10.216;2022-08-16T12:21:39;5.90;;;5.15;;
13571;SDS011;6857;53.484;10.216;2022-08-16T12:24:06;7.18;;;4.80;;
13571;SDS011;6857;53.484;10.216;2022-08-16T12:26:32;4.97;;;4.05;;
13571;SDS011;6857;53.484;10.216;2022-08-16T12:28:58;4.07;;;3.60;;
13571;SDS011;6857;53.484;10.216;2022-08-16T12:31:25;6.35;;;3.80;;
13571;SDS011;6857;53.484;10.216;2022-08-16T12:33:51;14.70;;;4.47;;
13571;SDS011;6857;53.484;10.216;2022-08-16T12:36:18;6.88;;;3.42;;
13571;SDS011;6857;53.484;10.216;2022-08-16T12:38:44;4.80;;;4.03;;
13571;SDS011;6857;53.484;10.216;2022-08-16T12:41:10;6.63;;;4.47;;
13571;SDS011;6857;53.484;10.216;2022-08-16T12:43:37;5.30;;;4.28;;
13571;SDS011;6857;53.484;10.216;2022-08-16T12:46:06;5.55;;;4.60;;
13571;SDS011;6857;53.484;10.216;2022-08-16T12:48:34;5.70;;;4.57;;
13571;SDS011;6857;53.484;10.216;2022-08-16T12:51:19;4.60;;;4.20;;
13571;SDS011;6857;53.484;10.216;2022-08-16T12:53:48;5.13;;;4.40;;
13571;SDS011;6857;53.484;10.216;2022-08-16T12:56:16;5.40;;;4.47;;
13571;SDS011;6857;53.484;10.216;2022-08-16T12:58:43;5.72;;;4.25;;
13571;SDS011;6857;53.484;10.216;2022-08-16T13:01:11;4.80;;;4.13;;
13571;SDS011;6857;53.484;10.216;2022-08-16T13:03:37;5.43;;;4.32;;
13571;SDS011;6857;53.484;10.216;2022-08-16T13:06:04;6.75;;;3.92;;
13571;SDS011;6857;53.484;10.216;2022-08-16T13:08:31;5.38;;;4.22;;
13571;SDS011;6857;53.484;10.216;2022-08-16T13:10:57;4.80;;;4.40;;
13571;SDS011;6857;53.484;10.216;2022-08-16T13:13:24;5.15;;;4.65;;
13571;SDS011;6857;53.484;10.216;2022-08-16T13:15:53;4.93;;;4.53;;
13571;SDS011;6857;53.484;10.216;2022-08-16T13:18:21;6.05;;;5.13;;
13571;SDS011;6857;53.484;10.216;2022-08-16T13:20:48;5.93;;;4.93;;
13571;SDS011;6857;53.484;10.216;2022-08-16T13:23:15;6.32;;;4.95;;
13571;SDS011;6857;53.484;10.216;2022-08-16T13:25:42;5.60;;;4.65;;
13571;SDS011;6857;53.484;10.216;2022-08-16T13:28:10;9.10;;;5.05;;
13571;SDS011;6857;53.484;10.216;2022-08-16T13:30:39;5.60;;;4.90;;
13571;SDS011;6857;53.484;10.216;2022-08-16T13:33:07;6.68;;;5.53;;
13571;SDS011;6857;53.484;10.216;2022-08-16T13:35:39;7.53;;;5.20;;
13571;SDS011;6857;53.484;10.216;2022-08-16T13:38:06;6.03;;;5.35;;
13571;SDS011;6857;53.484;10.216;2022-08-16T13:40:31;7.32;;;5.22;;
13571;SDS011;6857;53.484;10.216;2022-08-16T13:42:58;6.97;;;5.53;;
13571;SDS011;6857;53.484;10.216;2022-08-16T13:45:23;7.65;;;4.80;;
13571;SDS011;6857;53.484;10.216;2022-08-16T13:47:49;6.30;;;5.25;;
13571;SDS011;6857;53.484;10.216;2022-08-16T13:50:15;5.55;;;5.10;;
13571;SDS011;6857;53.484;10.216;2022-08-16T13:52:40;7.05;;;5.15;;
13571;SDS011;6857;53.484;10.216;2022-08-16T13:55:06;6.78;;;5.32;;
13571;SDS011;6857;53.484;10.216;2022-08-16T13:57:33;6.32;;;5.07;;
13571;SDS011;6857;53.484;10.216;2022-08-16T13:59:59;5.70;;;5.10;;
13571;SDS011;6857;53.484;10.216;2022-08-16T14:02:24;5.72;;;4.88;;
13571;SDS011;6857;53.484;10.216;2022-08-16T14:04:50;5.97;;;4.80;;
13571;SDS011;6857;53.484;10.216;2022-08-16T14:07:16;7.47;;;5.10;;
13571;SDS011;6857;53.484;10.216;2022-08-16T14:09:42;5.68;;;5.18;;
13571;SDS011;6857;53.484;10.216;2022-08-16T14:12:24;6.07;;;4.78;;
13571;SDS011;6857;53.484;10.216;2022-08-16T14:14:51;5.72;;;5.10;;
13571;SDS011;6857;53.484;10.216;2022-08-16T14:17:18;9.65;;;5.47;;
13571;SDS011;6857;53.484;10.216;2022-08-16T14:19:45;5.80;;;5.22;;
13571;SDS011;6857;53.484;10.216;2022-08-16T14:22:16;7.53;;;5.82;;
13571;SDS011;6857;53.484;10.216;2022-08-16T14:24:44;6.50;;;4.80;;
13571;SDS011;6857;53.484;10.216;2022-08-16T14:27:11;6.15;;;5.05;;
13571;SDS011;6857;53.484;10.216;2022-08-16T14:29:37;8.02;;;4.97;;